Time;durP1;ratioP1;P1;durP2;ratioP2;P2;SDS_P1;SDS_P2;PMS_P1;PMS_P2;Temp;Humidity;BMP_temperature;BMP_pressure;BME280_temperature;BME280_humidity;BME280_pressure;Samples;Min_cycle;Max_cycle;Signal;HPM_P1;HPM_P2
2023/08/13 00:03:16;;;;;;;8.27;4.60;;;26.40;71.80;;;;;;6203264;23;20031;-72
2023/08/13 00:05:42;;;;;;;8.52;4.53;;;26.30;71.70;;;;;;6185033;23;20338;-71
2023/08/13 00:08:08;;;;;;;7.43;4.10;;;26.30;71.40;;;;;;6184853;23;20004;-72
2023/08/13 00:10:34;;;;;;;9.80;4.40;;;26.20;71.00;;;;;;6185537;23;20009;-72
2023/08/13 00:13:01;;;;;;;7.55;4.28;;;26.20;71.20;;;;;;6184842;23;20316;-73
2023/08/13 00:15:29;;;;;;;9.45;4.45;;;26.20;71.00;;;;;;6184968;23;20399;-72
2023/08/13 00:18:01;;;;;;;9.18;4.47;;;26.20;70.70;;;;;;6158439;23;20009;-72
2023/08/13 00:20:43;;;;;;;7.55;3.72;;;26.20;70.70;;;;;;6159585;23;20029;-73
2023/08/13 00:23:08;;;;;;;9.23;4.15;;;26.20;70.50;;;;;;6184501;23;19997;-73
2023/08/13 00:25:35;;;;;;;8.90;4.00;;;26.10;70.50;;;;;;6185070;23;20012;-73
2023/08/13 00:28:00;;;;;;;8.63;4.15;;;26.10;70.20;;;;;;6184478;23;20084;-72
2023/08/13 00:30:26;;;;;;;8.73;4.13;;;26.20;70.60;;;;;;6184813;23;20032;-72
2023/08/13 00:32:52;;;;;;;7.68;4.35;;;26.20;70.60;;;;;;6184888;23;20020;-72
2023/08/13 00:35:18;;;;;;;8.55;4.18;;;26.20;70.40;;;;;;6185010;23;20116;-72
2023/08/13 00:37:44;;;;;;;9.80;4.20;;;26.10;70.40;;;;;;6184774;23;20066;-71
2023/08/13 00:40:14;;;;;;;10.88;4.30;;;26.10;70.80;;;;;;6184789;23;20009;-71
2023/08/13 00:42:40;;;;;;;9.27;4.57;;;26.10;70.70;;;;;;6184959;23;20005;-72
2023/08/13 00:45:06;;;;;;;9.30;4.35;;;26.00;70.60;;;;;;6184607;23;20351;-72
2023/08/13 00:47:36;;;;;;;9.40;4.82;;;26.00;70.60;;;;;;6185261;23;20005;-72
2023/08/13 00:50:05;;;;;;;8.68;4.07;;;26.00;70.70;;;;;;6186686;23;20072;-72
2023/08/13 00:52:32;;;;;;;7.68;4.20;;;26.10;70.20;;;;;;6186609;23;20012;-72
2023/08/13 00:54:58;;;;;;;7.65;4.88;;;26.00;70.20;;;;;;6186566;23;20489;-72
2023/08/13 00:57:24;;;;;;;14.18;4.97;;;26.00;70.10;;;;;;6186480;23;20016;-73
2023/08/13 00:59:57;;;;;;;8.23;4.82;;;26.00;70.40;;;;;;6187151;23;20060;-72
2023/08/13 01:02:23;;;;;;;12.85;4.93;;;25.90;70.50;;;;;;6160133;23;20494;-72
2023/08/13 01:04:49;;;;;;;11.43;5.43;;;25.90;70.70;;;;;;6186644;23;20013;-72
2023/08/13 01:07:33;;;;;;;10.48;5.20;;;25.80;70.90;;;;;;6184969;23;20013;-73
2023/08/13 01:10:18;;;;;;;8.02;4.95;;;25.80;71.20;;;;;;6186565;23;20082;-72
2023/08/13 01:12:53;;;;;;;11.77;5.20;;;25.80;70.90;;;;;;6186795;23;20510;-72
2023/08/13 01:15:26;;;;;;;12.00;5.28;;;25.80;70.70;;;;;;6186748;23;20028;-72
2023/08/13 01:17:53;;;;;;;11.07;4.90;;;25.80;71.30;;;;;;6186728;23;20059;-72
2023/08/13 01:20:44;;;;;;;13.07;5.32;;;25.80;71.30;;;;;;6159755;23;20148;-72
2023/08/13 01:23:10;;;;;;;11.07;4.93;;;25.70;71.30;;;;;;6185534;23;20028;-73
2023/08/13 01:25:37;;;;;;;10.80;4.93;;;25.70;71.10;;;;;;6186811;23;20081;-72
2023/08/13 01:28:30;;;;;;;12.40;4.82;;;25.60;71.30;;;;;;6186808;23;20477;-72
2023/08/13 01:31:01;;;;;;;13.00;5.22;;;25.50;71.40;;;;;;6186050;23;20497;-71
2023/08/13 01:33:35;;;;;;;7.05;4.38;;;25.50;71.70;;;;;;6186278;23;20096;-72
2023/08/13 01:36:04;;;;;;;9.30;4.60;;;25.50;71.50;;;;;;6186301;23;20001;-72
2023/08/13 01:38:31;;;;;;;8.35;4.25;;;25.50;71.40;;;;;;6186356;23;20048;-73
2023/08/13 01:40:59;;;;;;;10.90;4.70;;;25.50;71.70;;;;;;6186320;23;20024;-73
2023/08/13 01:43:25;;;;;;;9.23;4.40;;;25.50;71.70;;;;;;6186331;23;20008;-73
2023/08/13 01:45:52;;;;;;;8.77;4.50;;;25.50;71.30;;;;;;6186377;23;19997;-73
2023/08/13 01:48:18;;;;;;;7.35;4.65;;;25.50;71.30;;;;;;6186322;23;20041;-73
2023/08/13 01:50:44;;;;;;;9.52;4.13;;;25.40;71.00;;;;;;6186398;23;20001;-73
2023/08/13 01:53:13;;;;;;;7.63;4.38;;;25.30;71.10;;;;;;6185877;23;20084;-70
2023/08/13 01:55:39;;;;;;;8.25;4.47;;;25.30;70.90;;;;;;6186061;23;20001;-72
2023/08/13 01:58:08;;;;;;;7.07;4.22;;;25.40;70.90;;;;;;6185775;23;20005;-72
2023/08/13 02:00:39;;;;;;;8.85;4.32;;;25.40;70.60;;;;;;6186269;23;20001;-72
2023/08/13 02:03:05;;;;;;;6.82;3.53;;;25.40;70.40;;;;;;6185760;23;20005;-72
2023/08/13 02:05:31;;;;;;;8.10;4.22;;;25.30;70.70;;;;;;6186171;23;20059;-73
2023/08/13 02:07:57;;;;;;;7.10;3.88;;;25.30;70.40;;;;;;6186167;23;20005;-72
2023/08/13 02:10:24;;;;;;;11.77;3.95;;;25.30;70.70;;;;;;6185873;23;20080;-73
2023/08/13 02:12:50;;;;;;;8.02;3.78;;;25.30;70.70;;;;;;6185541;23;20067;-73
2023/08/13 02:15:18;;;;;;;8.15;3.70;;;25.30;70.60;;;;;;6185570;23;20016;-71
2023/08/13 02:17:46;;;;;;;6.85;3.55;;;25.30;70.50;;;;;;6186147;23;20009;-72
2023/08/13 02:20:13;;;;;;;14.15;4.10;;;25.30;70.60;;;;;;6183866;23;20055;-71
2023/08/13 02:22:50;;;;;;;9.32;4.05;;;25.20;70.20;;;;;;6185669;23;20008;-72
2023/08/13 02:25:16;;;;;;;7.05;3.80;;;25.20;70.20;;;;;;6186100;23;20108;-72
2023/08/13 02:27:51;;;;;;;10.05;3.55;;;25.10;69.80;;;;;;6159386;23;20019;-72
2023/08/13 02:30:28;;;;;;;7.95;3.67;;;25.10;70.00;;;;;;6185596;23;20080;-72
2023/08/13 02:32:55;;;;;;;8.07;3.50;;;25.00;70.20;;;;;;6186139;23;20040;-72
2023/08/13 02:35:21;;;;;;;6.97;4.13;;;25.00;70.10;;;;;;6185807;23;20024;-72
2023/08/13 02:37:47;;;;;;;8.25;4.03;;;25.00;70.50;;;;;;6185973;23;20005;-72
2023/08/13 02:40:13;;;;;;;5.80;3.60;;;24.90;70.30;;;;;;6185580;23;20379;-72
2023/08/13 02:42:44;;;;;;;8.50;4.20;;;24.90;70.20;;;;;;6185768;23;20036;-73
2023/08/13 02:45:10;;;;;;;7.50;3.78;;;24.90;70.00;;;;;;6185725;23;20341;-72
2023/08/13 02:47:39;;;;;;;6.57;3.60;;;24.90;70.50;;;;;;6185947;23;20379;-72
2023/08/13 02:50:06;;;;;;;8.52;3.95;;;24.90;69.90;;;;;;6185366;23;20443;-72
2023/08/13 02:52:32;;;;;;;8.95;3.95;;;24.90;70.00;;;;;;6183791;23;20009;-73
2023/08/13 02:54:58;;;;;;;8.30;3.92;;;24.80;70.10;;;;;;6185557;23;20430;-71
2023/08/13 02:57:27;;;;;;;8.07;3.33;;;24.80;70.20;;;;;;6185702;23;20001;-72
2023/08/13 02:59:54;;;;;;;8.82;3.55;;;24.80;70.10;;;;;;6185655;23;20119;-72
2023/08/13 03:02:20;;;;;;;8.73;3.40;;;24.80;70.00;;;;;;6185193;23;20001;-73
2023/08/13 03:04:46;;;;;;;8.25;3.85;;;24.80;70.10;;;;;;6163326;23;20028;-72
2023/08/13 03:07:12;;;;;;;8.32;4.10;;;24.80;69.80;;;;;;6155827;23;20010;-72
2023/08/13 03:09:38;;;;;;;9.32;4.05;;;24.70;69.90;;;;;;6155640;23;20005;-72
2023/08/13 03:12:07;;;;;;;7.53;3.75;;;24.60;70.40;;;;;;6155698;23;20001;-72
2023/08/13 03:14:33;;;;;;;7.32;2.97;;;24.70;70.20;;;;;;6129441;23;20017;-73
2023/08/13 03:16:59;;;;;;;7.10;3.50;;;24.70;70.40;;;;;;6155823;23;19998;-72
2023/08/13 03:19:31;;;;;;;7.10;3.40;;;24.70;70.50;;;;;;6155630;23;20129;-73
2023/08/13 03:21:57;;;;;;;6.60;3.60;;;24.60;70.20;;;;;;6155696;23;20001;-72
2023/08/13 03:24:23;;;;;;;7.10;3.20;;;24.60;70.20;;;;;;6154964;23;20002;-74
2023/08/13 03:26:49;;;;;;;8.52;3.47;;;24.60;70.30;;;;;;6129450;23;20020;-72
2023/08/13 03:29:17;;;;;;;6.00;3.25;;;24.60;70.30;;;;;;6155686;23;20009;-72
2023/08/13 03:31:43;;;;;;;6.72;3.50;;;24.50;70.40;;;;;;6155640;23;20001;-73
2023/08/13 03:34:10;;;;;;;6.25;3.78;;;24.50;70.50;;;;;;6155313;23;20010;-72
2023/08/13 03:36:36;;;;;;;6.57;3.30;;;24.40;70.70;;;;;;6129042;23;20428;-72
2023/08/13 03:39:02;;;;;;;8.40;3.50;;;24.30;70.60;;;;;;6155534;23;20062;-72
2023/08/13 03:41:31;;;;;;;7.68;3.42;;;24.40;70.90;;;;;;6155209;23;19998;-72
2023/08/13 03:44:18;;;;;;;7.07;3.72;;;24.30;71.10;;;;;;6155593;23;20002;-72
2023/08/13 03:46:54;;;;;;;6.93;3.88;;;24.30;70.70;;;;;;6154725;23;20009;-73
2023/08/13 03:49:23;;;;;;;6.40;3.40;;;24.30;70.90;;;;;;6155566;23;20012;-73
2023/08/13 03:51:58;;;;;;;7.85;3.40;;;24.30;71.00;;;;;;6155370;23;20009;-73
2023/08/13 03:54:24;;;;;;;8.18;3.97;;;24.30;71.00;;;;;;6128960;23;20288;-72
2023/08/13 03:56:59;;;;;;;5.65;3.50;;;24.30;71.20;;;;;;6155502;23;20063;-73
2023/08/13 03:59:25;;;;;;;6.30;3.42;;;24.20;70.90;;;;;;6155429;23;20001;-71
2023/08/13 04:01:57;;;;;;;8.00;3.65;;;24.20;71.30;;;;;;6154770;23;20041;-72
2023/08/13 04:04:26;;;;;;;8.65;3.70;;;24.20;71.20;;;;;;6172393;23;20021;-72
2023/08/13 04:06:52;;;;;;;7.55;3.35;;;24.20;71.10;;;;;;6185035;23;20001;-72
2023/08/13 04:09:18;;;;;;;7.20;3.65;;;24.20;71.50;;;;;;6184779;23;20007;-72
2023/08/13 04:11:55;;;;;;;8.43;4.00;;;24.10;71.20;;;;;;6185073;23;20335;-73
2023/08/13 04:14:22;;;;;;;11.10;3.20;;;24.10;71.10;;;;;;6184928;23;20051;-73
2023/08/13 04:16:48;;;;;;;9.88;3.75;;;24.10;71.00;;;;;;6184828;23;19997;-73
2023/08/13 04:19:14;;;;;;;6.60;3.50;;;24.10;71.00;;;;;;6185142;23;20016;-73
2023/08/13 04:21:40;;;;;;;10.70;3.60;;;24.10;70.80;;;;;;6184901;23;19997;-73
2023/08/13 04:24:07;;;;;;;8.93;3.90;;;24.10;70.80;;;;;;6185120;23;20447;-72
2023/08/13 04:26:33;;;;;;;7.28;3.80;;;24.10;70.90;;;;;;6158522;23;20005;-72
2023/08/13 04:28:59;;;;;;;6.38;3.40;;;24.10;71.40;;;;;;6184950;23;19997;-73
2023/08/13 04:31:25;;;;;;;9.65;3.80;;;24.10;71.00;;;;;;6184966;23;20423;-72
2023/08/13 04:33:50;;;;;;;5.82;3.47;;;24.20;70.90;;;;;;6185135;23;20009;-73
2023/08/13 04:36:16;;;;;;;8.55;3.72;;;24.30;70.70;;;;;;6184553;23;20515;-72
2023/08/13 04:38:42;;;;;;;12.27;4.00;;;24.20;70.60;;;;;;6184935;23;20323;-72
2023/08/13 04:41:08;;;;;;;7.07;3.78;;;24.20;70.50;;;;;;6184678;23;19997;-73
2023/08/13 04:43:35;;;;;;;8.00;3.67;;;24.30;71.10;;;;;;6158419;23;20017;-73
2023/08/13 04:46:00;;;;;;;6.70;3.97;;;24.30;70.40;;;;;;6184827;23;20044;-71
2023/08/13 04:48:46;;;;;;;6.53;3.70;;;24.20;70.70;;;;;;6184546;23;20001;-73
2023/08/13 04:51:15;;;;;;;9.80;4.35;;;24.20;70.70;;;;;;6184958;23;20000;-73
2023/08/13 04:53:41;;;;;;;9.05;3.63;;;24.20;70.90;;;;;;6184905;23;20009;-73
2023/08/13 04:56:07;;;;;;;9.13;3.83;;;24.20;70.70;;;;;;6184826;23;20024;-72
2023/08/13 04:58:34;;;;;;;7.13;3.60;;;24.20;70.60;;;;;;6184961;23;20009;-72
2023/08/13 05:01:00;;;;;;;8.10;3.90;;;24.20;70.60;;;;;;6184351;23;20436;-72
2023/08/13 05:03:27;;;;;;;10.13;3.85;;;24.20;71.80;;;;;;6184237;23;20044;-72
2023/08/13 05:05:53;;;;;;;6.93;3.42;;;24.20;70.80;;;;;;6184672;23;20005;-73
2023/08/13 05:08:19;;;;;;;9.02;3.92;;;24.20;70.80;;;;;;6158269;23;20071;-73
2023/08/13 05:10:45;;;;;;;9.13;3.72;;;24.20;70.80;;;;;;6184456;23;20008;-73
2023/08/13 05:13:13;;;;;;;8.73;4.15;;;24.20;71.50;;;;;;6184202;23;20012;-73
2023/08/13 05:15:39;;;;;;;7.70;3.88;;;24.20;70.90;;;;;;6183273;23;20048;-73
2023/08/13 05:18:06;;;;;;;6.88;3.55;;;24.20;71.00;;;;;;6184672;23;20024;-72
2023/08/13 05:20:32;;;;;;;9.38;4.03;;;24.20;70.60;;;;;;6184307;23;20029;-72
2023/08/13 05:22:58;;;;;;;7.93;3.47;;;24.20;70.60;;;;;;6184828;23;20012;-72
2023/08/13 05:25:25;;;;;;;7.88;3.47;;;24.20;70.60;;;;;;6185205;23;20005;-72
2023/08/13 05:27:54;;;;;;;6.38;3.60;;;24.30;70.30;;;;;;6184602;23;20027;-72
2023/08/13 05:30:20;;;;;;;7.43;3.97;;;24.50;70.00;;;;;;6184794;23;20031;-73
2023/08/13 05:32:46;;;;;;;10.60;3.97;;;24.50;69.90;;;;;;6184376;23;20016;-72
2023/08/13 05:35:13;;;;;;;9.45;4.00;;;24.70;69.70;;;;;;6186011;23;20004;-72
2023/08/13 05:37:42;;;;;;;7.13;3.95;;;24.90;69.40;;;;;;6186249;23;20080;-72
2023/08/13 05:40:08;;;;;;;11.45;4.00;;;25.10;68.90;;;;;;6186322;23;20008;-73
2023/08/13 05:42:34;;;;;;;6.65;4.03;;;25.40;68.30;;;;;;6186323;23;20012;-73
2023/08/13 05:45:03;;;;;;;10.20;4.00;;;25.60;68.00;;;;;;6159658;23;20009;-71
2023/08/13 05:47:29;;;;;;;9.70;4.13;;;25.90;66.90;;;;;;6186137;23;20031;-72
2023/08/13 05:49:55;;;;;;;7.35;3.72;;;26.30;66.60;;;;;;6186231;23;20005;-71
2023/08/13 05:52:22;;;;;;;7.22;3.70;;;26.60;65.90;;;;;;6159569;23;20506;-73
2023/08/13 05:54:49;;;;;;;9.80;3.67;;;26.70;65.30;;;;;;6186246;23;20005;-73
2023/08/13 05:57:15;;;;;;;8.25;4.25;;;26.90;64.70;;;;;;6185780;23;20001;-73
2023/08/13 05:59:42;;;;;;;6.15;3.45;;;27.10;64.10;;;;;;6159574;23;20044;-73
2023/08/13 06:02:08;;;;;;;10.18;5.15;;;27.30;63.50;;;;;;6186337;23;20001;-72
2023/08/13 06:04:34;;;;;;;9.93;4.70;;;27.30;63.20;;;;;;6186038;23;20101;-73
2023/08/13 06:07:04;;;;;;;7.90;3.95;;;27.50;62.70;;;;;;6185787;23;20005;-73
2023/08/13 06:09:33;;;;;;;8.73;4.10;;;27.90;61.90;;;;;;6185726;23;20462;-73
2023/08/13 06:12:00;;;;;;;7.30;4.35;;;28.30;61.20;;;;;;6184137;23;20005;-73
2023/08/13 06:14:29;;;;;;;6.85;4.10;;;28.60;60.20;;;;;;6185902;23;20013;-72
2023/08/13 06:16:55;;;;;;;8.10;3.40;;;28.90;59.50;;;;;;6186174;23;20001;-73
2023/08/13 06:19:21;;;;;;;6.30;2.97;;;29.10;58.80;;;;;;6185883;23;20048;-73
2023/08/13 06:21:47;;;;;;;7.63;3.30;;;29.30;57.70;;;;;;6185864;23;20446;-73
2023/08/13 06:24:16;;;;;;;5.20;3.00;;;29.50;56.70;;;;;;6186001;23;20440;-73
2023/08/13 06:26:42;;;;;;;6.43;2.50;;;29.50;56.40;;;;;;6185759;23;20021;-73
2023/08/13 06:29:29;;;;;;;7.70;2.95;;;29.60;55.80;;;;;;6186144;23;20032;-72
2023/08/13 06:31:55;;;;;;;6.40;2.90;;;29.90;55.40;;;;;;6185566;23;20009;-71
2023/08/13 06:34:21;;;;;;;7.22;2.75;;;30.20;54.80;;;;;;6185524;23;20013;-73
2023/08/13 06:36:47;;;;;;;5.55;2.75;;;30.40;54.10;;;;;;6185846;23;19997;-74
2023/08/13 06:39:16;;;;;;;6.20;3.03;;;30.50;53.40;;;;;;6185506;23;20005;-72
2023/08/13 06:41:45;;;;;;;7.22;2.60;;;30.60;52.60;;;;;;6186003;23;20001;-70
2023/08/13 06:44:23;;;;;;;7.22;2.38;;;30.40;52.30;;;;;;6185971;23;20039;-73
2023/08/13 06:46:49;;;;;;;6.07;3.30;;;30.40;52.00;;;;;;6185707;23;20025;-72
2023/08/13 06:49:16;;;;;;;7.18;3.00;;;30.40;52.00;;;;;;6185781;23;20001;-73
2023/08/13 06:51:45;;;;;;;8.75;3.38;;;30.50;51.90;;;;;;6185540;23;20071;-72
2023/08/13 06:54:11;;;;;;;9.15;2.80;;;30.60;51.70;;;;;;6185591;23;20013;-72
2023/08/13 06:56:37;;;;;;;7.00;2.40;;;30.80;51.60;;;;;;6159188;23;20009;-73
2023/08/13 06:59:03;;;;;;;6.05;3.20;;;30.90;50.60;;;;;;6159362;23;20013;-73
2023/08/13 07:01:32;;;;;;;9.32;3.70;;;30.80;50.90;;;;;;6185961;23;20001;-73
2023/08/13 07:03:58;;;;;;;6.05;2.63;;;30.90;51.00;;;;;;6185356;23;20034;-70
2023/08/13 07:06:25;;;;;;;7.47;2.67;;;30.90;50.50;;;;;;6185711;23;20001;-74
2023/08/13 07:08:51;;;;;;;5.45;2.58;;;30.70;50.70;;;;;;6185854;23;20076;-74
2023/08/13 07:11:17;;;;;;;6.25;2.55;;;30.90;50.50;;;;;;6185679;23;20001;-74
2023/08/13 07:13:43;;;;;;;8.20;2.60;;;31.00;50.20;;;;;;6185416;23;20339;-72
2023/08/13 07:16:11;;;;;;;7.55;2.47;;;31.00;50.20;;;;;;6185466;23;19997;-73
2023/08/13 07:18:37;;;;;;;10.40;3.03;;;31.00;50.10;;;;;;6185401;23;20100;-73
2023/08/13 07:21:06;;;;;;;10.68;5.60;;;31.00;49.60;;;;;;6185406;23;20435;-72
2023/08/13 07:23:32;;;;;;;8.52;4.63;;;31.10;49.30;;;;;;6185567;23;20012;-72
2023/08/13 07:25:58;;;;;;;11.25;3.22;;;31.10;50.00;;;;;;6185406;23;20001;-73
2023/08/13 07:28:24;;;;;;;7.00;3.00;;;31.20;49.20;;;;;;6158944;23;20436;-72
2023/08/13 07:30:50;;;;;;;4.88;2.28;;;31.30;49.60;;;;;;6185656;23;20028;-74
2023/08/13 07:33:16;;;;;;;5.95;2.85;;;31.40;49.60;;;;;;6185246;23;20009;-73
2023/08/13 07:35:42;;;;;;;7.70;2.60;;;31.30;48.90;;;;;;6185766;23;20032;-73
2023/08/13 07:38:08;;;;;;;5.75;2.50;;;31.40;49.70;;;;;;6184884;23;20001;-72
2023/08/13 07:40:34;;;;;;;6.05;2.60;;;31.50;49.30;;;;;;6185438;23;20024;-73
2023/08/13 07:43:01;;;;;;;4.75;2.53;;;31.40;49.60;;;;;;6185491;23;19997;-73
2023/08/13 07:45:29;;;;;;;6.55;3.00;;;31.50;49.40;;;;;;6185178;23;20070;-72
2023/08/13 07:47:58;;;;;;;5.35;3.22;;;31.50;49.70;;;;;;6185089;23;20323;-73
2023/08/13 07:50:24;;;;;;;7.85;2.97;;;31.50;50.10;;;;;;6184838;23;20020;-73
2023/08/13 07:52:50;;;;;;;7.82;2.80;;;31.50;50.00;;;;;;6184709;23;20008;-73
2023/08/13 07:55:17;;;;;;;7.78;2.63;;;31.60;49.00;;;;;;6158503;23;20012;-73
2023/08/13 07:57:43;;;;;;;6.22;2.63;;;31.50;49.00;;;;;;6184671;23;20080;-72
2023/08/13 08:00:10;;;;;;;4.80;2.70;;;31.50;49.50;;;;;;6158670;23;20099;-72
2023/08/13 08:02:37;;;;;;;5.32;2.83;;;31.40;49.80;;;;;;6158592;23;20032;-73
2023/08/13 08:05:05;;;;;;;6.03;2.70;;;31.40;50.00;;;;;;6185000;23;20021;-72
2023/08/13 08:07:43;;;;;;;5.57;2.65;;;31.40;50.00;;;;;;6185278;23;20047;-73
2023/08/13 08:10:09;;;;;;;11.98;2.78;;;31.20;49.10;;;;;;6185067;23;20001;-72
2023/08/13 08:12:35;;;;;;;7.38;2.70;;;31.10;50.20;;;;;;6184947;23;20068;-73
2023/08/13 08:15:02;;;;;;;6.70;2.50;;;31.00;50.40;;;;;;6185116;23;20009;-72
2023/08/13 08:17:28;;;;;;;8.93;2.70;;;31.00;51.00;;;;;;6184689;23;20001;-72
2023/08/13 08:19:54;;;;;;;5.75;3.00;;;31.00;50.90;;;;;;6185305;23;20462;-72
2023/08/13 08:22:20;;;;;;;9.48;3.47;;;30.90;50.50;;;;;;6185191;23;20431;-72
2023/08/13 08:24:46;;;;;;;5.88;2.65;;;30.70;51.10;;;;;;6185252;23;20024;-72
2023/08/13 08:27:12;;;;;;;5.88;2.40;;;30.60;50.90;;;;;;6184874;23;20001;-73
2023/08/13 08:29:40;;;;;;;8.95;3.28;;;30.50;51.30;;;;;;6184752;23;20001;-72
2023/08/13 08:32:06;;;;;;;7.13;2.90;;;30.40;51.60;;;;;;6184218;23;20013;-73
2023/08/13 08:34:35;;;;;;;5.32;2.20;;;30.40;51.90;;;;;;6184895;23;20443;-73
2023/08/13 08:37:03;;;;;;;5.68;2.53;;;30.40;51.80;;;;;;6185040;23;20001;-73
2023/08/13 08:39:29;;;;;;;6.20;2.40;;;30.40;52.00;;;;;;6184933;23;20040;-72
2023/08/13 08:41:57;;;;;;;5.53;2.72;;;30.30;52.20;;;;;;6184770;23;20028;-72
2023/08/13 08:44:24;;;;;;;6.57;2.70;;;30.30;52.50;;;;;;6158537;23;20388;-73
2023/08/13 08:46:53;;;;;;;4.55;2.20;;;30.20;52.00;;;;;;6184880;23;20090;-73
2023/08/13 08:49:23;;;;;;;4.50;2.47;;;30.20;51.30;;;;;;6184783;23;20009;-73
2023/08/13 08:51:50;;;;;;;4.07;2.40;;;30.20;50.80;;;;;;6158289;23;20336;-72
2023/08/13 08:54:17;;;;;;;4.50;2.63;;;30.20;50.60;;;;;;6172944;23;20044;-72
2023/08/13 08:56:43;;;;;;;4.53;2.45;;;30.20;51.10;;;;;;6184832;23;20432;-73
2023/08/13 08:59:09;;;;;;;7.60;2.47;;;30.20;50.20;;;;;;6184658;23;20514;-72
2023/08/13 09:01:35;;;;;;;7.18;2.13;;;30.20;50.40;;;;;;6184653;23;20435;-73
2023/08/13 09:04:02;;;;;;;3.97;2.20;;;30.20;50.00;;;;;;6184636;23;20021;-73
2023/08/13 09:06:57;;;;;;;4.10;2.15;;;30.20;48.90;;;;;;6184752;23;20008;-73
2023/08/13 09:09:24;;;;;;;5.32;2.33;;;30.20;48.20;;;;;;6184211;23;20065;-72
2023/08/13 09:11:51;;;;;;;6.85;2.50;;;30.20;49.50;;;;;;6186736;23;20003;-74
2023/08/13 09:14:18;;;;;;;5.00;2.25;;;30.20;49.00;;;;;;6186618;23;20009;-74
2023/08/13 09:16:48;;;;;;;5.47;2.40;;;30.20;48.90;;;;;;6186989;23;20001;-73
2023/08/13 09:19:15;;;;;;;4.70;2.78;;;30.20;48.50;;;;;;6186733;23;20005;-74
2023/08/13 09:21:55;;;;;;;6.03;3.15;;;30.20;48.10;;;;;;6185036;23;20317;-73
2023/08/13 09:24:49;;;;;;;5.53;2.50;;;30.20;46.60;;;;;;6185145;23;20009;-74
2023/08/13 09:27:18;;;;;;;4.10;2.30;;;30.20;48.70;;;;;;6180926;23;20092;-72
2023/08/13 09:29:59;;;;;;;5.53;2.40;;;30.20;48.30;;;;;;6186690;23;20084;-74
2023/08/13 09:32:28;;;;;;;5.20;2.63;;;30.20;47.90;;;;;;6186306;23;20001;-73
2023/08/13 09:35:00;;;;;;;8.57;2.60;;;30.30;48.70;;;;;;6186689;23;20039;-73
2023/08/13 09:37:26;;;;;;;5.68;2.58;;;30.30;47.70;;;;;;6159982;23;20327;-73
2023/08/13 09:39:58;;;;;;;4.30;2.58;;;30.40;47.10;;;;;;6186679;23;20001;-73
2023/08/13 09:42:24;;;;;;;4.28;2.70;;;30.40;46.70;;;;;;6186055;23;20024;-73
2023/08/13 09:44:56;;;;;;;5.30;2.90;;;30.40;46.30;;;;;;6186319;23;20076;-73
2023/08/13 09:47:26;;;;;;;5.05;2.50;;;30.40;45.70;;;;;;6186132;23;20072;-73
2023/08/13 09:49:55;;;;;;;6.35;2.55;;;30.40;46.50;;;;;;6186105;23;19997;-73
2023/08/13 09:52:26;;;;;;;3.90;2.33;;;30.40;46.30;;;;;;6186321;23;20005;-73
2023/08/13 09:55:07;;;;;;;6.32;2.67;;;30.50;46.20;;;;;;6186479;23;20013;-72
2023/08/13 09:57:36;;;;;;;4.25;2.35;;;30.50;44.50;;;;;;6186367;23;20001;-74
2023/08/13 10:00:14;;;;;;;5.00;2.50;;;30.50;45.40;;;;;;6186397;23;20012;-73
2023/08/13 10:02:43;;;;;;;4.85;2.65;;;30.50;45.30;;;;;;6186365;23;20065;-73
2023/08/13 10:05:12;;;;;;;5.90;2.58;;;30.50;44.80;;;;;;6159858;23;20111;-74
2023/08/13 10:07:38;;;;;;;4.18;2.53;;;30.60;44.70;;;;;;6193079;23;20296;-73
2023/08/13 10:10:05;;;;;;;4.35;2.20;;;30.60;44.90;;;;;;6186273;23;20081;-74
2023/08/13 10:12:31;;;;;;;4.45;2.40;;;30.70;44.90;;;;;;6186194;23;19997;-73
2023/08/13 10:14:59;;;;;;;5.00;2.60;;;30.70;44.80;;;;;;6159798;23;20451;-73
2023/08/13 10:17:28;;;;;;;5.90;2.50;;;30.80;44.80;;;;;;6186087;23;20352;-72
2023/08/13 10:19:55;;;;;;;4.70;2.70;;;30.80;45.30;;;;;;6185584;23;20005;-72
2023/08/13 10:22:39;;;;;;;6.72;2.60;;;30.80;45.50;;;;;;6186043;23;20004;-73
2023/08/13 10:25:10;;;;;;;5.80;2.72;;;30.80;47.10;;;;;;6186170;23;20007;-73
2023/08/13 10:27:43;;;;;;;6.30;3.05;;;30.80;45.90;;;;;;6159640;23;20001;-73
2023/08/13 10:30:13;;;;;;;4.32;2.60;;;30.90;45.90;;;;;;6186073;23;20008;-74
2023/08/13 10:32:54;;;;;;;4.95;2.78;;;30.90;44.90;;;;;;6186008;23;20012;-74
2023/08/13 10:35:25;;;;;;;5.00;2.40;;;31.00;44.10;;;;;;6186054;23;20006;-75
2023/08/13 10:38:02;;;;;;;5.07;2.53;;;31.00;44.40;;;;;;6186281;23;20002;-73
2023/08/13 10:40:28;;;;;;;6.18;2.95;;;31.20;46.80;;;;;;6186061;23;20001;-74
2023/08/13 10:43:01;;;;;;;5.47;2.85;;;31.20;45.50;;;;;;6185883;23;20008;-74
2023/08/13 10:45:35;;;;;;;4.85;2.83;;;31.20;45.90;;;;;;6185641;23;20020;-73
2023/08/13 10:48:05;;;;;;;6.18;3.00;;;31.40;44.40;;;;;;6185814;23;20001;-73
2023/08/13 10:50:34;;;;;;;6.00;2.58;;;31.50;45.00;;;;;;6185738;23;19997;-73
2023/08/13 10:53:07;;;;;;;6.80;2.90;;;31.50;43.70;;;;;;6185653;23;20007;-74
2023/08/13 10:55:43;;;;;;;4.32;2.83;;;31.50;42.60;;;;;;6185773;23;20005;-72
2023/08/13 10:58:25;;;;;;;8.18;2.78;;;31.50;42.90;;;;;;6185457;23;20056;-74
2023/08/13 11:00:56;;;;;;;6.28;3.17;;;31.50;42.40;;;;;;6185987;23;19999;-74
2023/08/13 11:03:25;;;;;;;5.18;2.97;;;31.50;42.90;;;;;;6180901;23;20013;-74
2023/08/13 11:05:52;;;;;;;4.60;2.75;;;31.60;42.60;;;;;;6155905;23;20005;-74
2023/08/13 11:08:20;;;;;;;7.90;2.80;;;31.60;42.00;;;;;;6155682;23;19998;-73
2023/08/13 11:10:50;;;;;;;5.18;2.58;;;31.70;42.00;;;;;;6155564;23;20081;-73
2023/08/13 11:13:18;;;;;;;5.00;3.03;;;31.60;42.40;;;;;;6155751;23;20012;-73
2023/08/13 11:15:54;;;;;;;4.40;2.90;;;31.60;41.60;;;;;;6129607;23;20061;-74
2023/08/13 11:18:21;;;;;;;4.95;2.97;;;31.70;41.60;;;;;;6129501;23;20065;-73
2023/08/13 11:20:48;;;;;;;5.40;3.30;;;31.70;40.90;;;;;;6129596;23;20522;-73
2023/08/13 11:23:16;;;;;;;4.50;3.03;;;31.80;40.60;;;;;;6155413;23;20069;-74
2023/08/13 11:25:44;;;;;;;4.53;3.00;;;31.80;41.00;;;;;;6155898;23;20008;-74
2023/08/13 11:28:09;;;;;;;4.70;3.05;;;31.90;40.80;;;;;;6155649;23;20447;-73
2023/08/13 11:30:43;;;;;;;4.35;3.20;;;31.90;40.70;;;;;;6154913;23;19997;-74
2023/08/13 11:33:09;;;;;;;5.47;3.05;;;32.00;40.00;;;;;;6155385;23;20332;-74
2023/08/13 11:35:37;;;;;;;4.60;3.38;;;32.00;40.10;;;;;;6155647;23;20010;-73
2023/08/13 11:38:03;;;;;;;5.15;3.40;;;32.00;39.80;;;;;;6155771;23;20500;-75
2023/08/13 11:40:29;;;;;;;5.35;3.17;;;32.00;39.60;;;;;;6155472;23;20002;-73
2023/08/13 11:43:03;;;;;;;5.93;3.13;;;32.00;39.80;;;;;;6155575;23;20041;-73
2023/08/13 11:45:31;;;;;;;4.60;3.33;;;32.00;39.30;;;;;;6155060;23;20002;-74
2023/08/13 11:48:14;;;;;;;4.05;2.92;;;31.90;39.70;;;;;;6129279;23;20104;-75
2023/08/13 11:50:41;;;;;;;5.75;3.00;;;32.00;40.20;;;;;;6155395;23;20002;-74
2023/08/13 11:53:17;;;;;;;6.30;3.33;;;32.10;40.00;;;;;;6155427;23;19998;-72
2023/08/13 11:55:45;;;;;;;5.43;3.65;;;32.10;39.50;;;;;;6155448;23;20010;-72
2023/08/13 11:58:15;;;;;;;4.35;3.15;;;32.10;39.60;;;;;;6160369;23;20076;-73
2023/08/13 12:00:41;;;;;;;6.20;3.33;;;32.20;39.70;;;;;;6156208;23;20305;-74
2023/08/13 12:03:07;;;;;;;4.72;2.85;;;32.20;39.50;;;;;;6156854;23;20056;-74
2023/08/13 12:05:35;;;;;;;5.82;3.40;;;32.20;39.60;;;;;;6183421;23;20013;-73
2023/08/13 12:08:05;;;;;;;5.03;3.30;;;32.20;40.30;;;;;;6212495;23;20431;-73
2023/08/13 12:10:32;;;;;;;6.45;3.50;;;32.30;39.60;;;;;;6215148;23;20001;-73
2023/08/13 12:12:59;;;;;;;5.72;3.50;;;32.30;40.00;;;;;;6215197;23;20028;-73
2023/08/13 12:15:25;;;;;;;6.82;5.43;;;32.40;39.90;;;;;;6215300;23;20058;-72
2023/08/13 12:17:56;;;;;;;10.35;5.70;;;32.40;39.60;;;;;;6188665;23;20051;-73
2023/08/13 12:20:23;;;;;;;5.90;4.40;;;32.50;39.50;;;;;;6215376;23;20001;-74
2023/08/13 12:22:50;;;;;;;6.28;4.00;;;32.50;39.50;;;;;;6215108;23;20426;-72
2023/08/13 12:25:16;;;;;;;4.97;3.40;;;32.60;39.40;;;;;;6215147;23;20422;-73
2023/08/13 12:27:43;;;;;;;5.20;3.97;;;32.60;39.90;;;;;;6188603;23;20031;-74
2023/08/13 12:30:10;;;;;;;6.50;4.60;;;32.60;39.80;;;;;;6215237;23;20047;-73
2023/08/13 12:32:37;;;;;;;5.60;3.88;;;32.70;39.80;;;;;;6188045;23;20015;-73
2023/08/13 12:35:03;;;;;;;4.30;3.13;;;32.70;39.80;;;;;;6188256;23;20501;-73
2023/08/13 12:37:29;;;;;;;4.95;3.20;;;32.80;39.50;;;;;;6215062;23;20005;-73
2023/08/13 12:39:55;;;;;;;4.95;3.40;;;32.80;39.10;;;;;;6188235;23;20013;-74
2023/08/13 12:42:21;;;;;;;6.35;3.92;;;32.90;39.10;;;;;;6215849;23;20001;-74
2023/08/13 12:44:48;;;;;;;6.75;3.58;;;32.80;38.80;;;;;;6217160;23;20000;-72
2023/08/13 12:47:14;;;;;;;5.15;3.00;;;32.90;38.80;;;;;;6190700;23;20454;-73
2023/08/13 12:49:40;;;;;;;5.25;3.50;;;32.90;38.90;;;;;;6217190;23;20005;-72
2023/08/13 12:52:06;;;;;;;6.07;2.97;;;32.90;39.40;;;;;;6216887;23;19997;-72
2023/08/13 12:54:32;;;;;;;5.53;3.38;;;32.90;39.10;;;;;;6216621;23;20016;-73